createdAt,value
2022-10-02T00:02:03.253Z,69.69
2022-10-02T00:04:09.869Z,69.97
2022-10-02T00:06:21.999Z,70.02
2022-10-02T00:08:36.488Z,70.28
2022-10-02T00:11:09.471Z,70.15
2022-10-02T00:13:26.098Z,69.95
2022-10-02T00:15:31.376Z,70.40
2022-10-02T00:17:38.238Z,69.85
2022-10-02T00:19:39.974Z,69.46
2022-10-02T00:21:59.134Z,69.82
2022-10-02T00:24:03.622Z,70.16
2022-10-02T00:26:20.106Z,70.54
2022-10-02T00:28:35.633Z,70.30
2022-10-02T00:30:58.828Z,70.37
2022-10-02T00:33:09.112Z,70.43
2022-10-02T00:35:46.359Z,70.47
2022-10-02T00:37:57.014Z,70.37
2022-10-02T00:39:58.600Z,70.53
2022-10-02T00:42:48.455Z,70.15
2022-10-02T00:45:31.697Z,70.08
2022-10-02T00:47:46.203Z,70.51
2022-10-02T00:50:31.826Z,70.67
2022-10-02T00:52:51.913Z,70.76
2022-10-02T00:54:53.478Z,70.27
2022-10-02T00:57:19.185Z,70.47
2022-10-02T00:59:50.341Z,70.57
2022-10-02T01:02:02.908Z,70.95
2022-10-02T01:04:11.528Z,70.42
2022-10-02T01:06:13.346Z,70.57
2022-10-02T01:08:16.894Z,70.38
2022-10-02T01:10:19.304Z,70.56
2022-10-02T01:12:22.682Z,70.71
2022-10-02T01:14:39.123Z,70.79
2022-10-02T01:16:42.621Z,70.44
2022-10-02T01:18:48.790Z,70.58
2022-10-02T01:21:02.413Z,71.17
2022-10-02T01:23:32.247Z,71.04
2022-10-02T01:25:34.028Z,70.87
2022-10-02T01:27:39.149Z,70.72
2022-10-02T01:29:44.208Z,70.73
2022-10-02T01:31:45.973Z,71.38
2022-10-02T01:33:49.587Z,71.14
2022-10-02T01:35:51.499Z,71.06
2022-10-02T01:37:55.323Z,71.26
2022-10-02T01:40:06.899Z,71.35
2022-10-02T01:42:08.584Z,71.44
2022-10-02T01:44:11.793Z,71.54
2022-10-02T01:46:48.863Z,71.51
2022-10-02T01:49:01.134Z,71.77
2022-10-02T01:51:27.441Z,71.59
2022-10-02T01:54:16.207Z,71.51
2022-10-02T01:56:38.091Z,72.08
2022-10-02T01:58:48.453Z,72.12
2022-10-02T02:01:18.457Z,72.26
2022-10-02T02:03:39.993Z,71.77
2022-10-02T02:05:58.498Z,71.99
2022-10-02T02:08:09.695Z,72.15
2022-10-02T02:10:34.327Z,72.35
2022-10-02T02:12:57.767Z,72.22
2022-10-02T02:15:07.536Z,72.09
2022-10-02T02:17:18.361Z,72.43
2022-10-02T02:19:28.953Z,71.96
2022-10-02T02:21:43.018Z,71.99
2022-10-02T02:23:46.390Z,72.22
2022-10-02T02:25:54.412Z,72.02
2022-10-02T02:27:59.715Z,71.94
2022-10-02T02:30:09.367Z,71.85
2022-10-02T02:32:23.410Z,71.79
2022-10-02T02:34:36.993Z,71.25
2022-10-02T02:36:42.933Z,71.89
2022-10-02T02:38:53.134Z,71.89
2022-10-02T02:41:09.189Z,71.73
2022-10-02T02:43:22.087Z,71.66
2022-10-02T02:45:27.385Z,71.75
2022-10-02T02:47:45.310Z,71.69
2022-10-02T02:50:11.483Z,71.74
2022-10-02T02:52:27.889Z,71.49
2022-10-02T02:54:38.967Z,71.59
2022-10-02T02:56:42.767Z,71.72
2022-10-02T02:58:53.327Z,71.61
2022-10-02T03:00:55.782Z,71.88
2022-10-02T03:02:58.525Z,71.60
2022-10-02T03:05:00.209Z,71.82
2022-10-02T03:07:05.325Z,71.76
2022-10-02T03:09:13.647Z,71.45
2022-10-02T03:11:21.300Z,71.29
2022-10-02T03:13:35.912Z,71.53
2022-10-02T03:16:11.848Z,71.59
2022-10-02T03:18:25.961Z,71.57
2022-10-02T03:20:52.255Z,71.70
2022-10-02T03:23:13.628Z,71.33
2022-10-02T03:25:34.079Z,71.49
2022-10-02T03:27:51.528Z,71.69
2022-10-02T03:30:02.931Z,71.76
2022-10-02T03:32:18.069Z,71.97
2022-10-02T03:34:20.187Z,71.85
2022-10-02T03:36:30.493Z,72.95
2022-10-02T03:38:33.941Z,72.86
2022-10-02T03:40:35.779Z,72.45
2022-10-02T03:42:37.598Z,72.48
2022-10-02T03:44:39.369Z,72.21
2022-10-02T03:46:41.108Z,72.29
2022-10-02T03:48:42.812Z,72.41
2022-10-02T03:50:45.045Z,72.15
2022-10-02T03:52:49.160Z,72.14
2022-10-02T03:54:57.574Z,72.21
2022-10-02T03:57:04.957Z,71.99
2022-10-02T03:59:15.078Z,72.23
2022-10-02T04:01:39.701Z,71.96
2022-10-02T04:03:46.281Z,71.83
2022-10-02T04:06:11.020Z,72.01
2022-10-02T04:08:24.192Z,71.61
2022-10-02T04:10:29.960Z,71.85
2022-10-02T04:12:41.246Z,71.87
2022-10-02T04:14:54.295Z,71.71
2022-10-02T04:17:06.014Z,71.67
2022-10-02T04:19:17.513Z,71.62
2022-10-02T04:21:32.424Z,71.53
2022-10-02T04:23:39.811Z,71.51
2022-10-02T04:25:49.592Z,71.80
2022-10-02T04:27:56.958Z,71.79
2022-10-02T04:30:04.400Z,71.46
2022-10-02T04:32:27.563Z,71.40
2022-10-02T04:34:29.174Z,71.34
2022-10-02T04:37:01.879Z,71.89
2022-10-02T04:39:30.110Z,71.84
2022-10-02T04:41:49.402Z,71.45
2022-10-02T04:44:23.341Z,71.89
2022-10-02T04:46:27.783Z,71.70
2022-10-02T04:48:51.148Z,72.21
2022-10-02T04:51:29.993Z,72.01
2022-10-02T04:53:43.507Z,71.81
2022-10-02T04:56:20.180Z,71.65
2022-10-02T04:58:32.555Z,72.00
2022-10-02T05:00:49.062Z,71.67
2022-10-02T05:03:10.682Z,71.63
2022-10-02T05:05:38.907Z,72.40
2022-10-02T05:08:22.364Z,71.85
2022-10-02T05:10:41.964Z,72.17
2022-10-02T05:13:01.488Z,72.04
2022-10-02T05:15:21.681Z,72.22
2022-10-02T05:17:46.413Z,72.05
2022-10-02T05:20:09.717Z,72.30
2022-10-02T05:22:30.876Z,72.08
2022-10-02T05:24:35.704Z,72.36
2022-10-02T05:27:00.030Z,72.24
2022-10-02T05:29:15.358Z,72.08
2022-10-02T05:31:35.074Z,72.08
2022-10-02T05:33:53.060Z,72.38
2022-10-02T05:36:17.388Z,72.45
2022-10-02T05:38:27.831Z,72.41
2022-10-02T05:40:53.575Z,72.50
2022-10-02T05:43:19.423Z,72.69
2022-10-02T05:45:34.987Z,72.47
2022-10-02T05:47:42.768Z,72.39
2022-10-02T05:49:53.878Z,72.41
2022-10-02T05:52:11.726Z,72.12
2022-10-02T05:54:27.934Z,72.36
2022-10-02T05:56:46.719Z,71.98
2022-10-02T05:58:56.719Z,72.04
2022-10-02T06:01:24.498Z,72.02
2022-10-02T06:03:31.952Z,72.14
2022-10-02T06:05:55.347Z,72.50
2022-10-02T06:08:02.818Z,72.13
2022-10-02T06:10:13.356Z,72.19
2022-10-02T06:12:31.718Z,72.25
2022-10-02T06:14:41.173Z,72.14
2022-10-02T06:16:49.400Z,72.51
2022-10-02T06:18:59.630Z,72.70
2022-10-02T06:21:12.859Z,72.79
2022-10-02T06:23:43.403Z,72.61
2022-10-02T06:25:47.591Z,72.98
2022-10-02T06:28:21.533Z,72.59
2022-10-02T06:30:23.472Z,72.98
2022-10-02T06:32:39.252Z,72.88
2022-10-02T06:34:44.584Z,73.16
2022-10-02T06:37:26.235Z,73.48
2022-10-02T06:39:33.795Z,73.74
2022-10-02T06:41:48.145Z,73.66
2022-10-02T06:44:20.031Z,73.75
2022-10-02T06:46:27.799Z,73.46
2022-10-02T06:48:48.311Z,73.34
2022-10-02T06:51:04.848Z,72.99
2022-10-02T06:53:32.700Z,73.21
2022-10-02T06:56:02.684Z,73.57
2022-10-02T06:58:16.562Z,73.02
2022-10-02T07:00:21.382Z,73.40
2022-10-02T07:02:29.100Z,72.83
2022-10-02T07:04:46.549Z,73.07
2022-10-02T07:07:08.700Z,72.93
2022-10-02T07:09:32.083Z,72.63
2022-10-02T07:11:55.292Z,72.58
2022-10-02T07:14:14.453Z,72.86
2022-10-02T07:16:32.338Z,72.96
2022-10-02T07:18:52.988Z,72.84
2022-10-02T07:21:12.287Z,72.72
2022-10-02T07:23:31.416Z,72.49
2022-10-02T07:25:56.275Z,72.05
2022-10-02T07:28:25.565Z,72.38
2022-10-02T07:30:38.160Z,72.07
2022-10-02T07:32:55.354Z,72.11
2022-10-02T07:35:22.148Z,71.89
2022-10-02T07:37:35.652Z,71.81
2022-10-02T07:39:56.051Z,71.52
2022-10-02T07:42:25.165Z,72.09
2022-10-02T07:44:45.285Z,72.05
2022-10-02T07:47:16.959Z,72.17
2022-10-02T07:49:42.295Z,71.65
2022-10-02T07:51:53.871Z,71.64
2022-10-02T07:54:08.926Z,71.51
2022-10-02T07:56:20.198Z,71.49
2022-10-02T07:58:42.140Z,70.75
2022-10-02T08:00:49.063Z,71.23
2022-10-02T08:02:57.369Z,71.21
2022-10-02T08:05:02.619Z,71.46
2022-10-02T08:07:06.531Z,71.59
2022-10-02T08:09:36.627Z,71.04
2022-10-02T08:11:49.157Z,71.07
2022-10-02T08:14:07.672Z,71.20
2022-10-02T08:16:11.083Z,71.21
2022-10-02T08:18:45.589Z,70.92
2022-10-02T08:20:49.370Z,71.15
2022-10-02T08:22:56.182Z,70.82
2022-10-02T08:25:03.151Z,71.05
2022-10-02T08:27:34.463Z,70.62
2022-10-02T08:29:49.151Z,70.41
2022-10-02T08:31:54.580Z,70.50
2022-10-02T08:33:57.601Z,70.14
2022-10-02T08:36:18.503Z,70.30
2022-10-02T08:38:22.759Z,70.27
2022-10-02T08:40:46.882Z,70.06
2022-10-02T08:43:04.252Z,70.26
2022-10-02T08:45:34.164Z,70.16
2022-10-02T08:48:06.328Z,70.40
2022-10-02T08:50:31.154Z,69.99
2022-10-02T08:52:44.619Z,69.99
2022-10-02T08:55:01.069Z,69.99
2022-10-02T08:57:28.198Z,69.64
2022-10-02T09:00:05.296Z,70.22
2022-10-02T09:02:29.460Z,69.72
2022-10-02T09:05:02.235Z,69.24
2022-10-02T09:07:18.751Z,68.20
2022-10-02T09:09:58.866Z,68.45
2022-10-02T09:12:58.299Z,68.61
2022-10-02T09:15:13.918Z,68.28
2022-10-02T09:17:48.830Z,68.54
2022-10-02T09:20:44.517Z,68.59
2022-10-02T09:23:27.499Z,68.05
2022-10-02T09:25:55.665Z,67.58
2022-10-02T09:28:37.139Z,67.60
2022-10-02T09:30:39.508Z,66.90
2022-10-02T09:33:11.678Z,66.81
2022-10-02T09:35:45.704Z,66.38
2022-10-02T09:37:47.623Z,66.75
2022-10-02T09:40:08.907Z,66.55
2022-10-02T09:42:39.930Z,65.67
2022-10-02T09:44:46.106Z,64.84
2022-10-02T09:47:17.043Z,64.60
2022-10-02T09:49:42.713Z,63.96
2022-10-02T09:52:38.168Z,63.57
2022-10-02T09:54:57.434Z,63.16
2022-10-02T09:57:44.105Z,62.98
2022-10-02T09:59:48.445Z,62.07
2022-10-02T10:01:57.090Z,61.99
2022-10-02T10:04:04.407Z,61.81
2022-10-02T10:06:27.979Z,61.21
2022-10-02T10:09:01.308Z,60.87
2022-10-02T10:11:41.899Z,60.84
2022-10-02T10:14:21.496Z,58.80
2022-10-02T10:16:34.742Z,57.57
2022-10-02T10:19:05.530Z,56.91
2022-10-02T10:21:44.040Z,54.98
2022-10-02T10:24:06.983Z,55.87
2022-10-02T10:26:24.343Z,55.62
2022-10-02T10:28:53.584Z,54.95
2022-10-02T10:31:18.201Z,54.59
2022-10-02T10:33:52.071Z,53.39
2022-10-02T10:36:46.909Z,53.77
2022-10-02T10:39:01.255Z,53.06
2022-10-02T10:41:36.465Z,53.15
2022-10-02T10:43:59.673Z,53.40
2022-10-02T10:46:09.346Z,53.33
2022-10-02T10:48:36.883Z,52.45
2022-10-02T10:50:54.460Z,53.23
2022-10-02T10:53:13.410Z,53.36
2022-10-02T10:55:38.993Z,51.97
2022-10-02T10:57:46.639Z,51.47
2022-10-02T11:00:11.467Z,51.47
2022-10-02T11:02:55.163Z,52.07
2022-10-02T11:05:36.753Z,49.86
2022-10-02T11:08:13.532Z,49.53
2022-10-02T11:10:27.015Z,49.71
2022-10-02T11:12:39.212Z,48.59
2022-10-02T11:14:59.888Z,47.86
2022-10-02T11:17:01.474Z,47.73
2022-10-02T11:19:08.855Z,46.77
2022-10-02T11:21:19.352Z,46.49
2022-10-02T11:23:23.605Z,45.65
2022-10-02T11:25:46.690Z,45.15
2022-10-02T11:27:57.612Z,45.47
2022-10-02T11:30:12.207Z,44.85
2022-10-02T11:32:47.143Z,44.37
2022-10-02T11:35:17.102Z,44.59
2022-10-02T11:37:49.023Z,44.25
2022-10-02T11:40:11.901Z,43.90
2022-10-02T11:42:30.376Z,43.72
2022-10-02T11:45:09.302Z,43.41
2022-10-02T11:47:40.560Z,43.77
2022-10-02T11:49:59.163Z,43.03
2022-10-02T11:52:08.921Z,42.94
2022-10-02T11:54:25.275Z,42.56
2022-10-02T11:56:35.831Z,42.15
2022-10-02T11:58:55.982Z,41.37
2022-10-02T12:01:13.918Z,40.97
2022-10-02T12:03:46.457Z,40.54
2022-10-02T12:06:03.175Z,40.27
2022-10-02T12:08:10.732Z,40.07
2022-10-02T12:10:19.345Z,39.82
2022-10-02T12:12:41.653Z,40.19
2022-10-02T12:15:23.953Z,39.72
2022-10-02T12:18:13.161Z,37.77
2022-10-02T12:21:11.120Z,37.21
2022-10-02T12:23:51.924Z,36.14
2022-10-02T12:26:21.985Z,35.84
2022-10-02T12:28:26.480Z,36.00
2022-10-02T12:31:01.403Z,34.60
2022-10-02T12:33:22.543Z,34.17
2022-10-02T12:35:42.903Z,34.53
2022-10-02T12:38:06.295Z,34.18
2022-10-02T12:40:26.522Z,34.05
2022-10-02T12:43:00.348Z,34.81
2022-10-02T12:45:25.801Z,33.99
2022-10-02T12:47:33.160Z,34.30
2022-10-02T12:49:40.699Z,33.91
2022-10-02T12:52:03.337Z,34.68
2022-10-02T12:54:15.248Z,33.33
2022-10-02T12:56:37.740Z,33.21
2022-10-02T12:58:45.350Z,33.92
2022-10-02T13:01:30.753Z,34.26
2022-10-02T13:03:47.077Z,34.07
2022-10-02T13:06:07.104Z,34.43
2022-10-02T13:08:11.552Z,35.10
2022-10-02T13:10:31.004Z,35.12
2022-10-02T13:13:17.512Z,34.95
2022-10-02T13:15:29.410Z,34.89
2022-10-02T13:17:43.154Z,34.64
2022-10-02T13:20:05.193Z,34.90
2022-10-02T13:22:23.866Z,34.85
2022-10-02T13:24:56.386Z,35.14
2022-10-02T13:27:18.627Z,34.41
2022-10-02T13:29:29.396Z,34.64
2022-10-02T13:31:55.045Z,35.03
2022-10-02T13:34:05.591Z,34.42
2022-10-02T13:36:15.146Z,34.52
2022-10-02T13:38:45.499Z,34.69
2022-10-02T13:41:17.723Z,34.63
2022-10-02T13:43:19.389Z,35.23
2022-10-02T13:45:24.116Z,35.52
2022-10-02T13:47:44.143Z,36.15
2022-10-02T13:50:04.255Z,37.22
2022-10-02T13:52:32.265Z,36.49
2022-10-02T13:55:10.918Z,36.87
2022-10-02T13:57:37.346Z,36.23
2022-10-02T13:59:58.450Z,36.54
2022-10-02T14:02:55.166Z,35.96
2022-10-02T14:05:30.289Z,36.13
2022-10-02T14:08:09.004Z,36.50
2022-10-02T14:10:22.687Z,36.12
2022-10-02T14:12:46.152Z,36.79
2022-10-02T14:15:17.912Z,36.58
2022-10-02T14:17:25.199Z,36.57
2022-10-02T14:19:28.141Z,36.91
2022-10-02T14:21:48.460Z,36.83
2022-10-02T14:24:08.723Z,36.86
2022-10-02T14:26:25.658Z,36.25
2022-10-02T14:29:08.731Z,36.08
2022-10-02T14:31:24.655Z,35.51
2022-10-02T14:33:52.526Z,35.38
2022-10-02T14:36:09.824Z,34.97
2022-10-02T14:38:27.961Z,34.96
2022-10-02T14:40:42.761Z,33.85
2022-10-02T14:43:02.529Z,33.19
2022-10-02T14:45:36.293Z,32.98
2022-10-02T14:48:05.217Z,32.77
2022-10-02T14:50:21.992Z,32.79
2022-10-02T14:52:53.219Z,33.22
2022-10-02T14:55:21.131Z,33.76
2022-10-02T14:57:41.456Z,34.24
2022-10-02T15:00:13.836Z,35.56
2022-10-02T15:02:37.121Z,34.67
2022-10-02T15:04:53.971Z,34.77
2022-10-02T15:07:24.626Z,33.76
2022-10-02T15:09:32.337Z,33.40
2022-10-02T15:11:37.699Z,33.32
2022-10-02T15:13:58.153Z,33.20
2022-10-02T15:16:37.474Z,32.02
2022-10-02T15:18:50.927Z,31.91
2022-10-02T15:21:16.191Z,31.78
2022-10-02T15:23:32.820Z,31.47
2022-10-02T15:25:52.877Z,30.92
2022-10-02T15:28:35.781Z,31.04
2022-10-02T15:30:47.372Z,31.55
2022-10-02T15:33:43.644Z,30.65
2022-10-02T15:36:19.438Z,31.94
2022-10-02T15:38:36.113Z,31.79
2022-10-02T15:40:47.730Z,31.84
2022-10-02T15:42:58.677Z,31.79
2022-10-02T15:45:15.311Z,32.47
2022-10-02T15:47:25.766Z,31.81
2022-10-02T15:49:48.792Z,31.80
2022-10-02T15:52:00.811Z,32.22
2022-10-02T15:54:27.970Z,31.85
2022-10-02T15:57:01.017Z,32.39
2022-10-02T15:59:24.378Z,33.17
2022-10-02T16:01:26.307Z,32.77
2022-10-02T16:03:37.233Z,33.32
2022-10-02T16:05:53.399Z,34.59
2022-10-02T16:08:00.034Z,34.31
2022-10-02T16:10:20.576Z,34.12
2022-10-02T16:12:37.625Z,33.93
2022-10-02T16:15:02.617Z,34.17
2022-10-02T16:17:30.249Z,35.03
2022-10-02T16:19:40.787Z,35.24
2022-10-02T16:22:25.371Z,35.59
2022-10-02T16:24:52.114Z,36.00
2022-10-02T16:27:26.207Z,35.57
2022-10-02T16:29:43.771Z,35.84
2022-10-02T16:32:27.345Z,36.15
2022-10-02T16:34:58.623Z,36.22
2022-10-02T16:37:11.173Z,37.11
2022-10-02T16:39:31.890Z,36.89
2022-10-02T16:41:58.776Z,37.06
2022-10-02T16:44:38.366Z,36.82
2022-10-02T16:46:40.244Z,37.65
2022-10-02T16:48:53.900Z,37.50
2022-10-02T16:51:26.958Z,37.23
2022-10-02T16:53:33.928Z,37.20
2022-10-02T16:56:19.524Z,37.60
2022-10-02T16:59:11.424Z,38.16
2022-10-02T17:01:31.806Z,38.35
2022-10-02T17:04:07.021Z,38.99
2022-10-02T17:06:19.499Z,38.57
2022-10-02T17:08:45.700Z,38.83
2022-10-02T17:11:05.712Z,38.86
2022-10-02T17:13:11.642Z,39.19
2022-10-02T17:15:22.021Z,39.30
2022-10-02T17:17:37.076Z,39.20
2022-10-02T17:19:56.606Z,39.34
2022-10-02T17:22:26.887Z,39.66
2022-10-02T17:24:46.894Z,39.36
2022-10-02T17:27:09.596Z,39.63
2022-10-02T17:29:23.972Z,39.62
2022-10-02T17:31:36.599Z,40.01
2022-10-02T17:33:52.751Z,39.90
2022-10-02T17:36:05.466Z,40.01
2022-10-02T17:38:09.697Z,40.31
2022-10-02T17:40:24.905Z,40.40
2022-10-02T17:42:42.019Z,41.03
2022-10-02T17:44:52.854Z,42.39
2022-10-02T17:47:10.065Z,40.88
2022-10-02T17:49:14.813Z,42.64
2022-10-02T17:51:52.860Z,41.83
2022-10-02T17:54:25.785Z,41.06
2022-10-02T17:56:55.899Z,40.95
2022-10-02T17:59:21.147Z,41.51
2022-10-02T18:01:44.227Z,41.89
2022-10-02T18:04:12.859Z,41.23
2022-10-02T18:06:21.410Z,41.47
2022-10-02T18:08:25.462Z,41.79
2022-10-02T18:10:54.185Z,42.03
2022-10-02T18:13:31.469Z,41.63
2022-10-02T18:15:42.543Z,43.08
2022-10-02T18:18:08.361Z,41.99
2022-10-02T18:20:34.243Z,42.84
2022-10-02T18:22:46.435Z,42.54
2022-10-02T18:25:17.114Z,42.33
2022-10-02T18:27:55.915Z,42.50
2022-10-02T18:30:03.588Z,42.67
2022-10-02T18:32:48.110Z,42.51
2022-10-02T18:34:53.540Z,42.88
2022-10-02T18:37:28.082Z,42.93
2022-10-02T18:39:42.133Z,42.85
2022-10-02T18:41:56.212Z,43.31
2022-10-02T18:44:06.935Z,43.33
2022-10-02T18:46:17.637Z,43.75
2022-10-02T18:48:27.943Z,43.84
2022-10-02T18:50:57.038Z,44.21
2022-10-02T18:53:28.828Z,44.31
2022-10-02T18:55:39.610Z,44.21
2022-10-02T18:57:44.187Z,44.46
2022-10-02T19:00:18.471Z,44.52
2022-10-02T19:02:54.684Z,44.22
2022-10-02T19:05:26.166Z,44.82
2022-10-02T19:07:38.396Z,44.50
2022-10-02T19:09:41.626Z,45.40
2022-10-02T19:11:47.202Z,45.10
2022-10-02T19:13:49.238Z,44.90
2022-10-02T19:15:54.087Z,45.04
2022-10-02T19:18:07.674Z,45.01
2022-10-02T19:20:50.548Z,44.72
2022-10-02T19:22:52.780Z,45.09
2022-10-02T19:25:03.525Z,45.53
2022-10-02T19:27:07.246Z,44.71
2022-10-02T19:29:30.460Z,45.47
2022-10-02T19:31:39.221Z,45.11
2022-10-02T19:33:52.772Z,44.69
2022-10-02T19:35:54.542Z,44.86
2022-10-02T19:38:12.739Z,45.15
2022-10-02T19:40:32.076Z,45.45
2022-10-02T19:42:45.392Z,45.64
2022-10-02T19:44:51.742Z,45.71
2022-10-02T19:46:57.506Z,46.07
2022-10-02T19:49:01.823Z,46.34
2022-10-02T19:51:07.426Z,46.10
2022-10-02T19:53:23.132Z,46.31
2022-10-02T19:55:29.164Z,46.84
2022-10-02T19:57:40.377Z,47.38
2022-10-02T19:59:47.603Z,47.69
2022-10-02T20:01:52.484Z,47.51
2022-10-02T20:03:59.192Z,47.81
2022-10-02T20:06:08.747Z,46.98
2022-10-02T20:08:17.818Z,47.06
2022-10-02T20:10:29.964Z,47.55
2022-10-02T20:12:41.460Z,47.64
2022-10-02T20:14:47.347Z,48.03
2022-10-02T20:17:07.889Z,48.00
2022-10-02T20:19:25.808Z,48.32
2022-10-02T20:21:36.466Z,48.40
2022-10-02T20:23:42.070Z,47.95
2022-10-02T20:25:53.052Z,48.36
2022-10-02T20:28:02.595Z,48.20
2022-10-02T20:30:25.670Z,48.34
2022-10-02T20:32:42.128Z,48.19
2022-10-02T20:35:22.977Z,48.37
2022-10-02T20:37:29.550Z,48.01
2022-10-02T20:39:55.194Z,48.35
2022-10-02T20:42:20.539Z,48.82
2022-10-02T20:44:22.499Z,48.86
2022-10-02T20:46:24.174Z,48.90
2022-10-02T20:49:07.554Z,48.38
2022-10-02T20:51:16.720Z,48.55
2022-10-02T20:53:29.743Z,48.43
2022-10-02T20:55:37.373Z,48.70
2022-10-02T20:58:01.435Z,48.75
2022-10-02T21:00:15.860Z,49.01
2022-10-02T21:02:41.900Z,49.16
2022-10-02T21:05:17.263Z,49.34
2022-10-02T21:07:24.660Z,49.01
2022-10-02T21:09:47.979Z,48.89
2022-10-02T21:12:23.565Z,48.57
2022-10-02T21:14:37.228Z,48.77
2022-10-02T21:17:16.115Z,48.31
2022-10-02T21:19:48.344Z,49.16
2022-10-02T21:22:11.007Z,48.92
2022-10-02T21:24:33.791Z,48.53
2022-10-02T21:27:01.518Z,48.73
2022-10-02T21:29:12.063Z,48.95
2022-10-02T21:31:29.691Z,49.35
2022-10-02T21:33:41.943Z,49.25
2022-10-02T21:36:06.978Z,49.41
2022-10-02T21:38:33.307Z,49.52
2022-10-02T21:41:16.483Z,49.97
2022-10-02T21:44:04.638Z,50.03
2022-10-02T21:46:24.890Z,49.97
2022-10-02T21:48:35.507Z,50.11
2022-10-02T21:50:46.629Z,49.80
2022-10-02T21:53:13.421Z,50.20
2022-10-02T21:55:41.246Z,50.74
2022-10-02T21:57:58.095Z,50.31
2022-10-02T22:00:13.129Z,50.22
2022-10-02T22:02:44.405Z,50.25
2022-10-02T22:05:21.373Z,50.24
2022-10-02T22:07:31.388Z,50.40
2022-10-02T22:10:06.418Z,50.39
2022-10-02T22:12:27.613Z,50.36
2022-10-02T22:14:38.488Z,50.54
2022-10-02T22:16:57.146Z,51.00
2022-10-02T22:19:25.200Z,50.67
2022-10-02T22:21:45.384Z,50.54
2022-10-02T22:24:20.735Z,50.89
2022-10-02T22:26:48.629Z,51.36
2022-10-02T22:28:59.399Z,50.77
2022-10-02T22:31:07.002Z,50.96
2022-10-02T22:33:58.196Z,51.00
2022-10-02T22:36:11.588Z,51.13
2022-10-02T22:38:57.539Z,51.28
2022-10-02T22:41:11.590Z,51.09
2022-10-02T22:43:27.587Z,52.12
2022-10-02T22:46:05.437Z,52.30
2022-10-02T22:48:17.262Z,52.42
2022-10-02T22:50:27.850Z,52.59
2022-10-02T22:52:42.886Z,53.08
2022-10-02T22:55:00.442Z,53.19
2022-10-02T22:57:02.037Z,53.46
2022-10-02T22:59:14.744Z,53.25
2022-10-02T23:01:21.297Z,53.43
2022-10-02T23:03:31.710Z,53.76
2022-10-02T23:06:01.007Z,54.04
2022-10-02T23:08:22.241Z,54.49
2022-10-02T23:10:27.472Z,54.27
2022-10-02T23:12:41.326Z,54.15
2022-10-02T23:15:08.655Z,54.65
2022-10-02T23:17:44.174Z,54.63
2022-10-02T23:19:56.493Z,54.54
2022-10-02T23:22:31.348Z,55.16
2022-10-02T23:25:18.646Z,55.03
2022-10-02T23:27:34.700Z,54.85
2022-10-02T23:29:36.272Z,55.16
2022-10-02T23:32:03.942Z,55.23
2022-10-02T23:34:08.759Z,55.37
2022-10-02T23:36:26.480Z,55.60
2022-10-02T23:38:37.279Z,55.63
2022-10-02T23:41:16.219Z,55.80
2022-10-02T23:43:38.279Z,56.01
2022-10-02T23:45:42.364Z,55.99
2022-10-02T23:47:54.842Z,56.39
2022-10-02T23:49:58.821Z,56.16
2022-10-02T23:52:19.568Z,56.00
2022-10-02T23:54:43.346Z,55.69
2022-10-02T23:57:17.725Z,56.06
2022-10-02T23:59:44.209Z,56.49
